Time;durP1;ratioP1;P1;durP2;ratioP2;P2;SDS_P1;SDS_P2;PMS_P1;PMS_P2;Temp;Humidity;BMP_temperature;BMP_pressure;BME280_temperature;BME280_humidity;BME280_pressure;Samples;Min_cycle;Max_cycle;Signal;HPM_P1;HPM_P2
2022/06/10 00:00:35;;;;;;;5.17;1.70;;;;;;;19.80;48.97;99240.06;1669460;85;21571;-75
2022/06/10 00:03:03;;;;;;;2.10;1.72;;;;;;;19.80;48.73;99243.19;1716386;83;21067;-75
2022/06/10 00:05:31;;;;;;;7.53;1.77;;;;;;;19.80;48.42;99237.85;1699381;84;21611;-75
2022/06/10 00:07:59;;;;;;;7.10;1.60;;;;;;;19.78;48.40;99237.97;1669305;85;21665;-75
2022/06/10 00:10:27;;;;;;;3.45;1.65;;;;;;;19.77;48.23;99232.74;1716267;83;21102;-75
2022/06/10 00:12:55;;;;;;;1.70;1.47;;;;;;;19.75;48.19;99242.20;1698925;84;21141;-75
2022/06/10 00:15:24;;;;;;;7.90;1.35;;;;;;;19.74;48.25;99244.98;1669134;85;21093;-75
2022/06/10 00:17:52;;;;;;;3.17;1.55;;;;;;;19.74;48.29;99243.66;1669484;85;21138;-75
2022/06/10 00:20:22;;;;;;;8.38;2.20;;;;;;;19.72;48.38;99244.23;1669781;85;21589;-75
2022/06/10 00:22:50;;;;;;;3.05;1.70;;;;;;;19.72;48.34;99250.44;1716320;83;21093;-75
2022/06/10 00:25:18;;;;;;;1.70;1.47;;;;;;;19.70;48.42;99249.69;1699041;84;21162;-76
2022/06/10 00:27:47;;;;;;;4.20;1.67;;;;;;;19.70;48.41;99250.17;1699413;84;21118;-75
2022/06/10 00:30:16;;;;;;;4.67;1.72;;;;;;;19.70;48.34;99250.17;1669507;85;21062;-75
2022/06/10 00:32:43;;;;;;;4.03;1.60;;;;;;;19.70;48.52;99250.17;1669859;85;21050;-75
2022/06/10 00:35:10;;;;;;;4.90;1.52;;;;;;;19.67;48.59;99248.12;1693688;84;21052;-75
2022/06/10 00:37:37;;;;;;;3.08;1.70;;;;;;;19.64;48.67;99247.02;1693870;84;21114;-75
2022/06/10 00:40:06;;;;;;;3.25;1.67;;;;;;;19.64;48.74;99251.51;1693770;84;21567;-75
2022/06/10 00:42:35;;;;;;;5.55;1.45;;;;;;;19.62;49.11;99248.95;1693617;84;21666;-75
2022/06/10 00:45:01;;;;;;;3.95;2.30;;;;;;;19.61;49.49;99248.58;1693881;84;21052;-75
2022/06/10 00:47:40;;;;;;;3.65;1.42;;;;;;;19.58;49.18;99247.47;1693671;84;21072;-75
2022/06/10 00:50:26;;;;;;;2.15;1.50;;;;;;;19.57;49.33;99248.45;1693797;84;21211;-75
2022/06/10 00:53:01;;;;;;;1.67;1.50;;;;;;;19.54;49.70;99248.69;1693485;84;21148;-75
2022/06/10 00:55:31;;;;;;;2.10;1.55;;;;;;;19.51;50.06;99251.58;1694011;84;21092;-75
2022/06/10 00:58:06;;;;;;;2.87;1.60;;;;;;;19.47;50.29;99257.64;1693522;84;21568;-75
2022/06/10 01:00:34;;;;;;;2.90;1.60;;;;;;;19.43;50.30;99249.52;1691575;84;21100;-75
2022/06/10 01:03:00;;;;;;;2.20;1.80;;;;;;;19.42;51.49;99246.96;1693789;84;21342;-75
2022/06/10 01:05:27;;;;;;;3.17;1.35;;;;;;;19.39;51.58;99244.52;1693830;84;21445;-75
2022/06/10 01:08:01;;;;;;;8.88;1.82;;;;;;;19.35;52.18;99253.70;1693727;84;21147;-75
2022/06/10 01:10:29;;;;;;;4.03;1.75;;;;;;;19.28;52.54;99244.84;1693750;84;21115;-75
2022/06/10 01:13:17;;;;;;;5.50;1.57;;;;;;;19.24;52.71;99246.02;1693902;84;21037;-75
2022/06/10 01:15:57;;;;;;;6.53;1.72;;;;;;;19.17;52.34;99248.80;1694250;84;21994;-75
2022/06/10 01:18:42;;;;;;;5.03;1.70;;;;;;;19.09;52.50;99248.51;1693698;84;21060;-75
2022/06/10 01:21:38;;;;;;;7.65;1.80;;;;;;;19.03;53.11;99247.16;1693854;84;21064;-76
2022/06/10 01:24:19;;;;;;;2.85;1.70;;;;;;;18.98;53.28;99251.11;1693568;84;21605;-75
2022/06/10 01:30:14;;;;;;;3.55;1.85;;;;;;;18.84;53.97;99257.46;1695992;84;21268;-75
2022/06/10 01:33:18;;;;;;;4.30;1.70;;;;;;;18.74;54.28;99262.57;1729212;83;21145;-75
2022/06/10 01:36:02;;;;;;;3.58;1.60;;;;;;;18.63;54.22;99259.86;1679334;84;21064;-75
2022/06/10 01:38:42;;;;;;;2.97;1.70;;;;;;;18.53;53.99;99269.83;1703410;84;21570;-75
2022/06/10 01:41:40;;;;;;;2.70;1.70;;;;;;;18.47;53.70;99260.93;1729481;82;21760;-75
2022/06/10 01:44:38;;;;;;;3.12;2.00;;;;;;;18.45;53.61;99262.86;1729303;83;21152;-75
2022/06/10 01:47:29;;;;;;;5.25;1.87;;;;;;;18.45;53.63;99260.20;1701594;84;21014;-75
2022/06/10 01:50:16;;;;;;;2.60;1.80;;;;;;;18.46;54.23;99269.91;1715941;83;21016;-76
2022/06/10 01:52:53;;;;;;;2.25;1.92;;;;;;;18.41;54.54;99261.39;1671572;83;21059;-74
2022/06/10 01:55:25;;;;;;;4.80;1.72;;;;;;;18.38;54.71;99261.11;1723579;83;21100;-75
2022/06/10 01:58:09;;;;;;;3.72;2.10;;;;;;;18.33;54.92;99271.73;1723702;83;21086;-76
2022/06/10 02:00:39;;;;;;;5.30;2.20;;;;;;;18.24;55.36;99264.38;1723980;83;21048;-75
2022/06/10 02:03:36;;;;;;;8.55;2.08;;;;;;;18.15;55.58;99262.73;1701304;84;21106;-75
2022/06/10 02:06:11;;;;;;;3.52;1.75;;;;;;;18.09;56.00;99261.84;1723652;83;21037;-76
2022/06/10 02:08:52;;;;;;;5.65;2.05;;;;;;;18.03;56.19;99264.92;1724037;83;21543;-75
2022/06/10 02:11:21;;;;;;;8.00;2.33;;;;;;;17.96;56.55;99268.98;1701126;84;21108;-75
2022/06/10 02:14:11;;;;;;;3.75;2.25;;;;;;;17.91;56.96;99268.45;1723697;83;21036;-75
2022/06/10 02:16:44;;;;;;;9.10;3.15;;;;;;;17.87;57.01;99267.81;1701141;84;21082;-75
2022/06/10 02:19:24;;;;;;;7.97;4.20;;;;;;;17.86;57.69;99271.88;1723335;83;21140;-75
2022/06/10 02:21:59;;;;;;;9.58;3.90;;;;;;;17.85;57.60;99274.15;1723745;83;21028;-75
2022/06/10 02:25:12;;;;;;;8.08;3.30;;;;;;;17.83;57.49;99276.42;1701030;84;21186;-75
2022/06/10 02:27:42;;;;;;;6.60;3.17;;;;;;;17.82;57.69;99284.05;1723722;83;21128;-76
2022/06/10 02:30:23;;;;;;;8.28;2.75;;;;;;;17.81;57.50;99286.81;1702009;84;21089;-75
2022/06/10 02:32:50;;;;;;;4.47;2.92;;;;;;;17.81;57.39;99290.32;1734253;82;21159;-75
2022/06/10 02:35:16;;;;;;;7.75;3.40;;;;;;;17.85;57.70;99290.12;1704013;84;21109;-75
2022/06/10 02:38:06;;;;;;;6.97;2.47;;;;;;;17.86;57.38;99290.50;1734304;82;21553;-75
2022/06/10 02:40:58;;;;;;;9.20;2.62;;;;;;;17.89;57.14;99282.34;1703766;84;21051;-75
2022/06/10 02:43:40;;;;;;;3.65;2.30;;;;;;;17.93;56.92;99282.49;1734110;82;20992;-75
2022/06/10 02:46:20;;;;;;;6.60;2.50;;;;;;;17.97;56.93;99291.96;1734488;82;21128;-75
2022/06/10 02:49:15;;;;;;;4.08;2.40;;;;;;;18.01;56.90;99288.14;1709152;82;20997;-75
2022/06/10 02:51:42;;;;;;;2.30;2.10;;;;;;;18.03;56.83;99288.88;1703754;84;21145;-75
2022/06/10 02:54:15;;;;;;;6.00;2.50;;;;;;;18.09;56.77;99294.25;1734180;82;21151;-75
2022/06/10 02:56:42;;;;;;;5.33;2.58;;;;;;;18.13;56.87;99289.95;1734327;82;21555;-76
2022/06/10 03:02:07;;;;;;;6.30;1.75;;;;;;;18.20;56.86;99287.22;1734176;82;21052;-75
2022/06/10 03:05:02;;;;;;;7.03;2.60;;;;;;;18.25;56.66;99295.38;1703918;84;21157;-75
2022/06/10 03:07:55;;;;;;;3.98;2.50;;;;;;;18.29;56.35;99298.19;1734210;82;22046;-75
2022/06/10 03:10:31;;;;;;;6.22;2.15;;;;;;;18.35;56.51;99297.77;1703819;84;21118;-74
2022/06/10 03:13:10;;;;;;;6.40;2.35;;;;;;;18.40;57.09;99299.63;1733956;82;21284;-75
2022/06/10 03:16:06;;;;;;;8.23;2.33;;;;;;;18.44;56.88;99300.26;1703728;84;21055;-75
2022/06/10 03:19:00;;;;;;;3.65;2.20;;;;;;;18.49;56.77;99296.33;1734123;82;21801;-75
2022/06/10 03:21:54;;;;;;;3.45;2.10;;;;;;;18.54;56.94;99298.19;1703681;84;21510;-76
2022/06/10 03:24:41;;;;;;;7.20;2.70;;;;;;;18.59;57.56;99291.66;1734246;82;21040;-75
2022/06/10 03:27:15;;;;;;;8.80;2.80;;;;;;;18.63;58.05;99293.16;1703861;84;21058;-75
2022/06/10 03:29:50;;;;;;;4.62;2.77;;;;;;;18.68;58.15;99288.36;1734395;82;21047;-75
2022/06/10 03:32:34;;;;;;;4.37;2.30;;;;;;;18.72;58.29;99292.48;1694159;84;21093;-76
2022/06/10 03:35:12;;;;;;;2.80;2.45;;;;;;;18.77;58.27;99293.00;1732822;82;21036;-74
2022/06/10 03:37:40;;;;;;;4.03;2.62;;;;;;;18.82;57.86;99291.34;1688483;84;21732;-76
2022/06/10 03:40:10;;;;;;;7.90;2.80;;;;;;;18.85;57.72;99289.34;1734459;82;21111;-75
2022/06/10 03:42:38;;;;;;;4.30;2.60;;;;;;;18.90;57.80;99296.52;1701249;84;21086;-75
2022/06/10 03:45:06;;;;;;;4.60;2.77;;;;;;;18.96;58.02;99293.03;1733819;82;21650;-76
2022/06/10 03:47:33;;;;;;;14.28;2.60;;;;;;;19.00;57.54;99295.38;1703824;84;21039;-76
2022/06/10 03:50:09;;;;;;;8.63;3.22;;;;;;;19.05;57.65;99292.37;1734351;82;21021;-75
2022/06/10 03:52:37;;;;;;;3.58;2.65;;;;;;;19.10;57.36;99294.22;1732720;82;21027;-76
2022/06/10 03:55:07;;;;;;;7.90;2.60;;;;;;;19.14;57.35;99290.84;1722184;83;21011;-75
2022/06/10 03:57:34;;;;;;;4.72;2.15;;;;;;;19.19;57.44;99297.53;1722485;82;21118;-75
2022/06/10 04:00:01;;;;;;;4.60;2.40;;;;;;;19.25;57.93;99296.24;1705631;84;21153;-75
2022/06/10 04:02:27;;;;;;;6.33;2.60;;;;;;;19.31;57.45;99293.09;1675750;85;21122;-75
2022/06/10 04:04:54;;;;;;;6.15;2.52;;;;;;;19.37;57.46;99293.98;1705922;84;21058;-75
2022/06/10 04:07:20;;;;;;;5.12;2.70;;;;;;;19.44;57.26;99297.89;1705509;84;21022;-76
2022/06/10 04:09:47;;;;;;;4.12;3.08;;;;;;;19.50;56.91;99296.56;1705966;84;21098;-76
2022/06/10 04:12:15;;;;;;;5.78;2.70;;;;;;;19.55;56.79;99298.44;1705833;84;21073;-75
2022/06/10 04:14:43;;;;;;;6.75;2.67;;;;;;;19.60;56.45;99304.27;1705546;84;21177;-75
2022/06/10 04:17:10;;;;;;;6.92;2.80;;;;;;;19.66;56.26;99302.45;1705744;84;22072;-75
2022/06/10 04:19:37;;;;;;;4.03;2.40;;;;;;;19.72;56.33;99309.63;1706014;84;21047;-76
2022/06/10 04:22:04;;;;;;;5.35;2.92;;;;;;;19.79;56.07;99313.59;1705633;84;21040;-75
2022/06/10 04:24:31;;;;;;;5.72;2.45;;;;;;;19.84;56.30;99315.42;1705485;84;21063;-76
2022/06/10 04:26:58;;;;;;;6.20;2.87;;;;;;;19.89;56.39;99313.25;1706088;84;21152;-75
2022/06/10 04:29:24;;;;;;;3.65;2.50;;;;;;;19.93;56.47;99309.36;1705699;84;21093;-75
2022/06/10 04:31:52;;;;;;;4.37;2.70;;;;;;;19.99;56.35;99319.58;1703705;84;21122;-75
2022/06/10 04:34:18;;;;;;;4.05;2.58;;;;;;;20.06;55.94;99315.11;1703059;84;21153;-76
2022/06/10 04:36:45;;;;;;;9.73;2.55;;;;;;;20.13;55.60;99321.17;1702890;84;21011;-76
2022/06/10 04:39:11;;;;;;;10.75;3.47;;;;;;;20.19;55.64;99320.71;1703042;84;21079;-75
2022/06/10 04:41:39;;;;;;;13.55;2.62;;;;;;;20.26;56.03;99325.09;1702874;84;21101;-76
2022/06/10 04:44:06;;;;;;;6.28;2.72;;;;;;;20.34;56.05;99329.36;1702987;84;21122;-76
2022/06/10 04:46:40;;;;;;;7.60;2.80;;;;;;;20.43;55.57;99329.61;1702981;84;21133;-75
2022/06/10 04:49:06;;;;;;;9.40;2.80;;;;;;;20.50;55.20;99325.47;1703233;84;21083;-75
2022/06/10 04:51:34;;;;;;;6.20;3.00;;;;;;;20.59;54.97;99334.08;1702963;84;21086;-76
2022/06/10 04:54:01;;;;;;;6.12;3.05;;;;;;;20.68;54.54;99336.53;1702914;84;21129;-76
2022/06/10 04:56:27;;;;;;;15.43;3.47;;;;;;;20.77;54.25;99338.00;1702790;84;21149;-76
2022/06/10 04:58:54;;;;;;;13.05;3.30;;;;;;;20.86;54.32;99342.25;1702816;84;21145;-76
2022/06/10 05:01:20;;;;;;;8.95;3.08;;;;;;;20.94;54.00;99340.66;1703149;84;21582;-75
2022/06/10 05:03:47;;;;;;;7.62;3.10;;;;;;;21.04;54.47;99339.42;1702871;84;21031;-76
2022/06/10 05:06:14;;;;;;;6.90;3.22;;;;;;;21.14;54.47;99343.05;1702951;84;21145;-76
2022/06/10 05:08:41;;;;;;;8.73;3.20;;;;;;;21.24;54.00;99339.64;1702787;84;21109;-76
2022/06/10 05:11:07;;;;;;;5.67;3.30;;;;;;;21.31;53.58;99344.34;1702910;84;22110;-76
2022/06/10 05:13:35;;;;;;;10.98;3.25;;;;;;;21.38;53.31;99343.36;1703010;84;22155;-75
2022/06/10 05:16:03;;;;;;;9.50;3.33;;;;;;;21.45;53.74;99343.70;1702988;84;21093;-76
2022/06/10 05:18:30;;;;;;;17.27;3.80;;;;;;;21.55;53.38;99345.16;1702685;84;21015;-76
2022/06/10 05:20:57;;;;;;;7.97;4.10;;;;;;;21.64;53.86;99345.25;1702947;84;21093;-76
2022/06/10 05:23:24;;;;;;;8.88;4.08;;;;;;;21.75;53.26;99348.36;1703132;84;21478;-76
2022/06/10 05:25:51;;;;;;;7.45;4.47;;;;;;;21.86;53.67;99348.31;1702828;84;21112;-75
2022/06/10 05:28:19;;;;;;;7.90;4.33;;;;;;;21.98;53.42;99353.62;1702880;84;21565;-76
2022/06/10 05:30:46;;;;;;;9.45;4.65;;;;;;;22.08;53.25;99354.53;1702488;84;21109;-76
2022/06/10 05:33:13;;;;;;;5.87;3.83;;;;;;;22.15;53.44;99354.36;1699280;84;21106;-76
2022/06/10 05:35:40;;;;;;;5.85;3.70;;;;;;;22.24;52.90;99358.95;1699482;84;21467;-76
2022/06/10 05:38:07;;;;;;;10.85;4.62;;;;;;;22.31;52.44;99358.44;1699190;84;21085;-76
2022/06/10 05:40:34;;;;;;;7.05;3.92;;;;;;;22.37;52.24;99364.61;1699117;84;21070;-76
2022/06/10 05:43:01;;;;;;;13.72;5.22;;;;;;;22.47;52.75;99366.86;1699182;84;21577;-76
2022/06/10 05:45:28;;;;;;;6.10;3.50;;;;;;;22.55;52.08;99360.34;1699160;84;21661;-76
2022/06/10 05:47:57;;;;;;;10.58;3.85;;;;;;;22.61;52.09;99365.17;1699341;84;21664;-76
2022/06/10 05:50:35;;;;;;;8.60;4.33;;;;;;;22.67;51.46;99369.64;1699042;84;21105;-76
2022/06/10 05:53:04;;;;;;;14.35;4.42;;;;;;;22.74;51.19;99367.61;1699106;84;21542;-76
2022/06/10 05:55:31;;;;;;;9.30;4.47;;;;;;;22.84;51.54;99373.53;1698972;84;21047;-75
2022/06/10 05:57:58;;;;;;;9.73;4.37;;;;;;;22.91;50.60;99373.33;1699508;84;21153;-75
2022/06/10 06:00:27;;;;;;;9.68;4.53;;;;;;;22.99;50.44;99375.69;1699168;84;21127;-76
2022/06/10 06:02:54;;;;;;;11.15;4.33;;;;;;;;;;1700775;84;21080;-76
2022/06/10 06:05:24;;;;;;;9.35;4.50;;;;;;;23.13;50.20;99379.01;1700640;84;21091;-76
2022/06/10 06:07:50;;;;;;;8.00;4.20;;;;;;;23.21;49.93;99375.15;1700422;84;21084;-76
2022/06/10 06:10:21;;;;;;;7.83;4.37;;;;;;;23.29;49.97;99375.31;1701006;84;21131;-76
2022/06/10 06:12:48;;;;;;;15.48;3.80;;;;;;;23.39;49.59;99378.53;1700458;84;21145;-76
2022/06/10 06:15:16;;;;;;;11.00;3.98;;;;;;;23.49;50.20;99378.05;1700594;84;21057;-76
2022/06/10 06:17:43;;;;;;;12.47;3.80;;;;;;;23.60;49.84;99381.92;1700678;84;21112;-76
2022/06/10 06:20:13;;;;;;;7.28;4.08;;;;;;;23.69;49.60;99378.41;1700633;84;21130;-76
2022/06/10 06:22:40;;;;;;;10.28;3.55;;;;;;;23.82;48.82;99382.20;1700631;84;21119;-76
2022/06/10 06:25:10;;;;;;;8.13;3.95;;;;;;;23.92;48.62;99387.55;1700134;84;21150;-76
2022/06/10 06:27:37;;;;;;;11.70;4.00;;;;;;;24.01;48.21;99381.34;1700274;84;21071;-76
2022/06/10 06:30:07;;;;;;;13.08;4.12;;;;;;;24.11;48.30;99386.20;1700515;84;21087;-76
2022/06/10 06:32:35;;;;;;;9.35;4.22;;;;;;;24.20;48.31;99387.17;1703965;84;21095;-76
2022/06/10 06:35:01;;;;;;;9.25;4.33;;;;;;;24.30;48.20;99387.16;1704708;84;21064;-76
2022/06/10 06:37:29;;;;;;;10.98;4.15;;;;;;;24.39;47.87;99393.00;1704946;84;21147;-76
2022/06/10 06:39:55;;;;;;;9.75;4.20;;;;;;;24.49;47.13;99395.67;1704695;84;21032;-77
2022/06/10 06:42:22;;;;;;;5.35;4.47;;;;;;;24.56;46.58;99397.32;1704534;84;21114;-76
2022/06/10 06:44:51;;;;;;;11.75;4.42;;;;;;;24.60;45.83;99400.09;1703515;84;22048;-76
2022/06/10 06:47:18;;;;;;;8.20;4.00;;;;;;;24.67;46.07;99399.84;1704649;84;21021;-76
2022/06/10 06:49:44;;;;;;;12.93;5.65;;;;;;;24.73;45.79;99405.99;1704473;84;21607;-76
2022/06/10 06:52:11;;;;;;;8.53;4.92;;;;;;;24.79;45.92;99404.04;1704906;84;21032;-76
2022/06/10 06:54:37;;;;;;;9.78;5.20;;;;;;;24.87;45.62;99407.86;1704574;84;20965;-76
2022/06/10 06:57:05;;;;;;;13.95;5.22;;;;;;;24.93;45.79;99415.32;1704568;84;21079;-76
2022/06/10 06:59:33;;;;;;;8.00;4.53;;;;;;;24.98;45.01;99411.21;1704524;84;21171;-76
2022/06/10 07:01:59;;;;;;;18.87;5.87;;;;;;;25.06;44.52;99413.14;1704768;84;22274;-76
2022/06/10 07:04:26;;;;;;;9.18;5.53;;;;;;;25.13;44.45;99416.95;1704369;84;21075;-76
2022/06/10 07:06:53;;;;;;;22.25;6.40;;;;;;;25.18;44.26;99406.59;1704561;84;21076;-76
2022/06/10 07:09:19;;;;;;;12.63;5.25;;;;;;;25.24;44.32;99410.52;1704598;84;21088;-76
2022/06/10 07:11:47;;;;;;;15.08;5.28;;;;;;;25.31;43.65;99408.94;1704590;84;21154;-76
2022/06/10 07:14:14;;;;;;;17.23;5.75;;;;;;;25.39;43.20;99408.20;1704752;84;22127;-77
2022/06/10 07:16:41;;;;;;;15.70;5.95;;;;;;;25.45;43.27;99406.22;1704554;84;20972;-76
2022/06/10 07:19:09;;;;;;;11.28;5.20;;;;;;;25.54;43.08;99405.33;1704592;84;21008;-76
2022/06/10 07:21:36;;;;;;;11.55;5.78;;;;;;;25.62;41.56;99407.27;1704697;84;21028;-76
2022/06/10 07:24:04;;;;;;;11.73;5.80;;;;;;;25.71;41.07;99404.16;1704806;84;21094;-77
2022/06/10 07:26:30;;;;;;;10.80;6.00;;;;;;;25.77;40.75;99404.39;1704653;84;21150;-76
2022/06/10 07:28:57;;;;;;;11.03;5.75;;;;;;;25.82;40.38;99411.98;1704643;84;21127;-77
2022/06/10 07:31:24;;;;;;;14.00;5.67;;;;;;;25.86;40.37;99402.61;1704646;84;21166;-76
2022/06/10 07:33:51;;;;;;;9.93;5.87;;;;;;;25.90;39.69;99403.98;1704601;84;21067;-76
2022/06/10 07:36:17;;;;;;;23.90;5.50;;;;;;;26.01;39.75;99403.43;1704584;84;21072;-77
2022/06/10 07:38:44;;;;;;;12.80;5.45;;;;;;;26.12;39.01;99405.38;1704667;84;21133;-76
2022/06/10 07:43:57;;;;;;;9.68;5.97;;;;;;;26.30;38.80;99407.22;1704692;84;21082;-76
2022/06/10 07:46:24;;;;;;;9.78;5.65;;;;;;;26.45;38.07;99407.50;1704830;84;21166;-76
2022/06/10 07:48:51;;;;;;;13.40;5.10;;;;;;;26.54;37.67;99401.14;1704869;84;21091;-76
2022/06/10 07:51:18;;;;;;;9.45;5.70;;;;;;;26.66;37.64;99412.06;1704682;84;21730;-76
2022/06/10 07:53:45;;;;;;;11.88;4.95;;;;;;;26.78;37.52;99411.77;1704954;84;22277;-76
2022/06/10 07:56:14;;;;;;;16.15;5.75;;;;;;;26.86;36.40;99409.98;1704667;84;21067;-77
2022/06/10 07:58:41;;;;;;;15.23;5.62;;;;;;;26.93;36.53;99408.81;1714168;82;21103;-76
2022/06/10 08:01:07;;;;;;;16.35;6.20;;;;;;;27.02;36.59;99410.55;1734337;82;21080;-76
2022/06/10 08:03:35;;;;;;;15.38;5.78;;;;;;;27.14;36.16;99411.63;1734376;82;21139;-76
2022/06/10 08:06:03;;;;;;;10.38;5.60;;;;;;;27.22;35.07;99421.11;1698099;84;21055;-76
2022/06/10 08:08:29;;;;;;;18.52;6.60;;;;;;;27.26;33.02;99417.06;1663655;86;20966;-76
2022/06/10 08:10:57;;;;;;;23.65;7.22;;;;;;;27.30;32.73;99421.15;1674908;85;21658;-76
2022/06/10 08:13:25;;;;;;;17.23;7.42;;;;;;;27.36;32.46;99419.67;1663909;85;21106;-76
2022/06/10 08:15:52;;;;;;;19.10;7.62;;;;;;;27.36;31.98;99413.75;1664034;86;21122;-77
2022/06/10 08:18:20;;;;;;;20.75;8.73;;;;;;;27.41;32.58;99412.75;1663698;86;21060;-76
2022/06/10 08:23:33;;;;;;;14.40;9.15;;;;;;;27.53;31.80;99416.51;1674721;85;21095;-76
2022/06/10 08:26:01;;;;;;;16.55;9.95;;;;;;;27.61;31.22;99409.77;1675078;85;21127;-77
2022/06/10 08:28:27;;;;;;;17.73;9.35;;;;;;;27.68;31.36;99408.09;1663647;86;21145;-77
2022/06/10 08:30:56;;;;;;;15.93;8.93;;;;;;;27.75;30.66;99410.97;1674588;85;22349;-76
2022/06/10 08:33:24;;;;;;;21.40;9.63;;;;;;;27.80;30.75;99414.02;1670289;85;21575;-76
2022/06/10 08:35:51;;;;;;;19.35;8.55;;;;;;;27.84;31.08;99411.83;1658210;86;21134;-77
2022/06/10 08:38:19;;;;;;;14.13;7.60;;;;;;;27.89;31.06;99408.11;1658359;86;21563;-77
2022/06/10 08:41:12;;;;;;;10.72;6.62;;;;;;;27.97;30.89;99414.91;1658300;86;21519;-76
2022/06/10 08:44:25;;;;;;;22.52;7.87;;;;;;;28.03;30.42;99415.60;1658415;86;21550;-77
2022/06/10 08:47:20;;;;;;;13.58;7.55;;;;;;;28.06;31.15;99419.81;1669250;85;21154;-76
2022/06/10 08:50:23;;;;;;;27.90;8.85;;;;;;;28.10;30.81;99415.26;1669411;85;21084;-76
2022/06/10 08:53:31;;;;;;;15.23;8.73;;;;;;;28.11;30.97;99413.39;1687713;85;21015;-76
2022/06/10 08:56:22;;;;;;;15.08;7.95;;;;;;;28.11;31.28;99414.25;1669543;85;21177;-77
2022/06/10 08:59:18;;;;;;;15.45;7.53;;;;;;;28.15;31.26;99415.59;1669197;85;20902;-77
2022/06/10 09:01:53;;;;;;;8.50;7.15;;;;;;;28.23;31.55;99413.92;1658395;86;21181;-76
2022/06/10 09:04:35;;;;;;;12.05;6.22;;;;;;;28.33;31.84;99408.66;1669058;85;21072;-77
2022/06/10 09:07:06;;;;;;;11.85;7.92;;;;;;;28.43;31.84;99410.33;1668060;85;21144;-76
2022/06/10 09:09:34;;;;;;;13.72;7.50;;;;;;;28.56;32.59;99411.20;1668989;85;39153;-76
2022/06/10 09:12:13;;;;;;;9.98;6.90;;;;;;;28.68;32.43;99409.81;1658204;86;21628;-76
2022/06/10 09:14:41;;;;;;;18.02;7.58;;;;;;;28.78;31.11;99402.36;1658289;86;21079;-76
2022/06/10 09:17:22;;;;;;;17.23;7.40;;;;;;;28.84;30.70;99411.12;1668849;85;21062;-77
2022/06/10 09:20:14;;;;;;;12.20;6.22;;;;;;;28.84;30.36;99405.71;1669255;85;21783;-77
2022/06/10 09:23:22;;;;;;;12.23;6.40;;;;;;;28.86;30.94;99413.14;1669066;85;21181;-76
2022/06/10 09:25:49;;;;;;;10.20;5.97;;;;;;;28.95;31.58;99417.19;1604581;89;21082;-77
2022/06/10 09:28:16;;;;;;;8.13;5.12;;;;;;;29.06;31.67;99419.00;1671434;84;21167;-77
2022/06/10 09:30:53;;;;;;;7.87;4.83;;;;;;;29.16;30.67;99412.03;1658305;86;21716;-76
2022/06/10 09:33:41;;;;;;;13.00;5.30;;;;;;;29.26;30.73;99416.75;1672404;85;21368;-77
2022/06/10 09:36:34;;;;;;;7.10;4.97;;;;;;;29.36;30.60;99413.00;1674330;85;21783;-76
2022/06/10 09:42:22;;;;;;;;;;;;;;;29.49;29.81;99415.98;1676805;85;21104;-77
2022/06/10 09:44:58;;;;;;;6.37;5.03;;;;;;;29.56;29.59;99412.88;1673976;85;20227;-77
2022/06/10 09:47:31;;;;;;;10.23;5.42;;;;;;;29.58;29.41;99410.83;1699887;84;21545;-76
2022/06/10 09:50:38;;;;;;;8.45;6.20;;;;;;;29.62;29.81;99416.73;1671798;85;21578;-77
2022/06/10 09:53:19;;;;;;;12.90;6.40;;;;;;;29.67;30.57;99414.84;1683627;85;21473;-77
2022/06/10 09:55:57;;;;;;;9.45;5.40;;;;;;;29.75;29.42;99412.91;1627327;87;21091;-77
2022/06/10 09:58:53;;;;;;;19.12;5.62;;;;;;;29.78;29.38;99413.12;1704198;84;21027;-77
2022/06/10 10:01:45;;;;;;;14.45;5.58;;;;;;;29.69;28.63;99416.86;1689518;84;21039;-76
2022/06/10 10:04:46;;;;;;;15.55;5.17;;;;;;;29.53;28.88;99414.59;1674743;85;21173;-77
2022/06/10 10:07:30;;;;;;;8.58;5.33;;;;;;;29.47;30.28;99419.35;1674620;85;21066;-76
2022/06/10 10:10:27;;;;;;;13.65;5.85;;;;;;;29.55;29.53;99421.19;1704435;84;21066;-76
2022/06/10 10:13:17;;;;;;;11.08;5.42;;;;;;;29.65;29.32;99417.21;1699108;84;21062;-76
2022/06/10 10:16:20;;;;;;;13.78;6.62;;;;;;;29.81;30.14;99418.19;1698247;84;21008;-76
2022/06/10 10:19:13;;;;;;;8.03;5.50;;;;;;;29.90;29.18;99423.87;1685987;84;21107;-76
2022/06/10 10:21:55;;;;;;;11.57;5.22;;;;;;;29.90;28.86;99419.80;1698822;84;21065;-77
2022/06/10 10:24:28;;;;;;;8.08;5.22;;;;;;;29.90;28.47;99419.80;1690648;84;21486;-77
2022/06/10 10:26:53;;;;;;;7.40;4.97;;;;;;;29.94;29.65;99419.78;1697592;84;21121;-77
2022/06/10 10:29:23;;;;;;;9.13;4.87;;;;;;;30.05;29.04;99423.09;1672086;84;21149;-77
2022/06/10 10:31:59;;;;;;;9.60;4.90;;;;;;;30.17;28.95;99425.17;1698582;84;21534;-75
2022/06/10 10:34:29;;;;;;;8.48;4.95;;;;;;;30.27;27.67;99424.09;1687862;84;22307;-77
2022/06/10 10:37:02;;;;;;;14.13;5.40;;;;;;;30.23;27.89;99418.69;1687946;85;21487;-76
2022/06/10 10:39:38;;;;;;;9.35;4.75;;;;;;;30.25;27.83;99424.28;1687996;85;21023;-77
2022/06/10 10:42:18;;;;;;;11.20;4.90;;;;;;;30.32;28.97;99417.61;1687682;84;21074;-77
2022/06/10 10:44:51;;;;;;;6.85;5.53;;;;;;;30.45;27.94;99419.21;1687842;85;21830;-77
2022/06/10 10:47:22;;;;;;;6.20;4.97;;;;;;;30.51;27.74;99413.05;1666632;85;23182;-77
2022/06/10 10:49:55;;;;;;;7.70;5.10;;;;;;;30.56;27.45;99409.76;1687623;85;21602;-77
2022/06/10 10:52:30;;;;;;;10.85;4.87;;;;;;;30.60;27.36;99421.95;1687765;85;21117;-77
2022/06/10 10:55:07;;;;;;;12.25;5.17;;;;;;;30.63;26.79;99412.58;1683927;84;21074;-77
2022/06/10 10:57:36;;;;;;;8.40;4.90;;;;;;;30.69;27.09;99412.67;1682957;85;21197;-77
2022/06/10 11:00:17;;;;;;;8.38;4.80;;;;;;;30.80;27.67;99409.16;1687695;85;21154;-77
2022/06/10 11:02:53;;;;;;;10.28;5.03;;;;;;;30.93;26.82;99405.28;1687441;85;21063;-77
2022/06/10 11:05:37;;;;;;;8.35;5.12;;;;;;;31.07;27.06;99404.47;1687891;85;21122;-78
2022/06/10 11:08:24;;;;;;;12.33;5.35;;;;;;;31.19;26.20;99394.49;1687615;85;21139;-77
2022/06/10 11:10:54;;;;;;;10.68;4.72;;;;;;;31.19;27.07;99398.56;1687702;85;21064;-78
2022/06/10 11:13:44;;;;;;;11.35;5.08;;;;;;;31.20;26.56;99394.80;1683134;85;21154;-77
2022/06/10 11:16:35;;;;;;;6.65;5.03;;;;;;;31.22;26.63;99399.52;1648654;85;21118;-77
2022/06/10 11:19:25;;;;;;;9.60;4.80;;;;;;;31.26;26.63;99402.20;1642109;87;21137;-78
2022/06/10 11:22:26;;;;;;;9.30;5.12;;;;;;;31.29;24.17;99389.59;1687934;85;21827;-77
2022/06/10 11:25:14;;;;;;;12.43;5.50;;;;;;;31.06;25.10;99397.34;1642178;87;21207;-78
2022/06/10 11:27:40;;;;;;;9.10;5.30;;;;;;;30.90;26.05;99392.06;1686984;84;21520;-77
2022/06/10 11:30:13;;;;;;;11.12;5.45;;;;;;;30.95;26.88;99396.48;1642226;87;21075;-77
2022/06/10 11:32:50;;;;;;;22.90;13.75;;;;;;;31.04;26.99;99399.41;1671381;85;21090;-77
2022/06/10 11:35:38;;;;;;;10.80;6.42;;;;;;;31.11;27.05;99389.47;1673984;85;21105;-77
2022/06/10 11:38:24;;;;;;;15.43;7.45;;;;;;;31.15;26.50;99387.73;1645822;87;21141;-78
2022/06/10 11:40:56;;;;;;;12.10;6.00;;;;;;;31.20;26.60;99377.13;1674632;85;21086;-77
2022/06/10 11:43:32;;;;;;;7.70;5.30;;;;;;;31.29;26.50;99388.23;1645854;87;21046;-78
2022/06/10 11:46:23;;;;;;;7.28;5.33;;;;;;;31.42;26.29;99388.39;1647283;85;21150;-77
2022/06/10 11:49:07;;;;;;;9.38;5.25;;;;;;;31.55;26.34;99380.91;1674710;85;21153;-77
2022/06/10 11:51:42;;;;;;;10.23;5.90;;;;;;;31.70;25.67;99387.66;1674257;85;25947;-77
2022/06/10 11:54:47;;;;;;;6.45;4.87;;;;;;;31.79;24.87;99378.35;1645563;87;21117;-78
2022/06/10 12:00:35;;;;;;;8.88;5.67;;;;;;;32.03;24.28;99368.11;1673867;85;21062;-77
2022/06/10 12:03:31;;;;;;;8.80;6.12;;;;;;;32.16;24.90;99370.97;1649070;85;21126;-77
2022/06/10 12:06:18;;;;;;;11.38;6.47;;;;;;;32.24;24.76;99374.05;1729244;83;21117;-77
2022/06/10 12:09:17;;;;;;;13.25;7.05;;;;;;;32.29;24.08;99370.21;1729451;82;21676;-78
2022/06/10 12:11:50;;;;;;;8.95;6.50;;;;;;;32.32;24.60;99368.98;1729480;83;21006;-78
2022/06/10 12:14:33;;;;;;;9.65;6.78;;;;;;;32.34;23.92;99366.91;1725882;82;21074;-77
2022/06/10 12:17:08;;;;;;;9.53;5.85;;;;;;;32.38;24.33;99362.73;1729235;83;21106;-77
2022/06/10 12:19:43;;;;;;;9.85;5.97;;;;;;;32.45;23.99;99368.22;1728774;83;21130;-77
2022/06/10 12:22:11;;;;;;;10.68;5.85;;;;;;;32.51;23.62;99364.72;1704173;84;21051;-77
2022/06/10 12:24:38;;;;;;;9.58;6.20;;;;;;;32.54;23.61;99366.52;1674508;85;21062;-77